Main page
Satellite images 15-day forecastsClimateMarine weather Cyclones Lightning AirportsFAQ Newsletter About
Weather : Europe Africa North America South America Asia Australia-Oceania Others
Languages Contact

Brussels, Belgium

National

latitude: 50-54N, longitude: 004-32E, elevation: 55 m


METAR: EBBR 242020Z 04003KT 020V080 9999 FEW030TCU 11/09 Q1015 NOSIG
short-TAF: out of date (36872 hours)
long-TAF: EBBR 241706Z 2418/2524 03005KT 9999 FEW030 PROB40 2501/2506 3000 BR

Time: 22:49 (20:49 UTC)

Current weather observation

The report was made 29 minutes ago, at 20:20 UTC  
Wind 03 kt from northeast, varying between north/northeast and east
Temperature 11°C
Humidity 87%
Pressure 1015 hPa
Visibility 10 km or more
Few clouds at a height of 3000 ft , Towering cumulus.

Change units

Forecast

The report was made 3 hours and 22 minutes ago, at 17:27 UTC  
Forecast valid from 24 at 18 UTC to 25 at 24 UTC
Wind 05 kt from north/northeast
Visibility 10 km or more
Few clouds at a height of 3000 ft
Probability 40%
from 25 at 01 UTC to 25 at 06 UTC
Visibility 3000 m
mist
The information on this site is subject to a disclaimer
Weather : Europe Africa North America South America Asia Australia-Oceania Others
Satellite images 15-day forecastsClimateMarine weather Cyclones Lightning AirportsFAQ Languages Contact Newsletter About